Time;durP1;ratioP1;P1;durP2;ratioP2;P2;SDS_P1;SDS_P2;PMS_P1;PMS_P2;Temp;Humidity;BMP_temperature;BMP_pressure;BME280_temperature;BME280_humidity;BME280_pressure;Samples;Min_cycle;Max_cycle;Signal;HPM_P1;HPM_P2
2021/03/02 00:02:00;;;;;;;40.03;26.13;;;12.50;65.10;;;;;;5075651;28;20105;-73
2021/03/02 00:04:27;;;;;;;42.42;26.55;;;12.50;64.60;;;;;;5075713;28;20474;-71
2021/03/02 00:06:53;;;;;;;41.88;26.55;;;12.40;65.40;;;;;;5075294;28;20020;-72
2021/03/02 00:09:19;;;;;;;40.88;27.58;;;12.40;65.30;;;;;;5074015;28;20036;-71
2021/03/02 00:11:46;;;;;;;41.42;28.98;;;12.20;65.70;;;;;;5075246;28;20381;-71
2021/03/02 00:14:13;;;;;;;46.70;30.00;;;12.10;65.90;;;;;;5075294;28;20123;-71
2021/03/02 00:16:44;;;;;;;49.30;30.48;;;12.20;66.80;;;;;;5074778;28;20103;-72
2021/03/02 00:19:14;;;;;;;47.53;29.25;;;12.20;66.50;;;;;;5073615;28;20047;-71
2021/03/02 00:21:49;;;;;;;42.10;30.33;;;12.00;66.60;;;;;;5075337;28;20028;-71
2021/03/02 00:24:24;;;;;;;41.75;28.80;;;11.90;67.00;;;;;;5075386;28;20426;-72
2021/03/02 00:26:54;;;;;;;46.85;28.98;;;11.80;67.70;;;;;;5075371;28;20374;-74
2021/03/02 00:29:20;;;;;;;45.28;30.23;;;11.80;67.70;;;;;;5074896;28;20031;-71
2021/03/02 00:31:48;;;;;;;44.63;30.60;;;11.70;68.10;;;;;;5075150;28;20425;-70
2021/03/02 00:34:14;;;;;;;51.35;30.15;;;11.70;68.50;;;;;;5075025;28;20024;-71
2021/03/02 00:36:40;;;;;;;39.50;28.80;;;11.70;68.50;;;;;;5075015;28;20111;-71
2021/03/02 00:39:06;;;;;;;37.90;27.15;;;11.60;68.10;;;;;;5074878;28;20021;-70
2021/03/02 00:41:31;;;;;;;38.33;26.10;;;11.70;68.40;;;;;;5074737;28;20060;-71
2021/03/02 00:43:57;;;;;;;39.28;24.05;;;11.70;67.60;;;;;;5074818;28;20052;-71
2021/03/02 00:46:23;;;;;;;33.72;23.85;;;11.70;66.90;;;;;;5074540;28;20060;-70
2021/03/02 00:48:49;;;;;;;31.73;23.42;;;11.60;67.10;;;;;;5075309;28;20025;-70
2021/03/02 00:51:15;;;;;;;36.05;23.08;;;11.60;66.60;;;;;;5074582;28;20025;-71
2021/03/02 00:53:41;;;;;;;29.88;20.80;;;11.70;66.30;;;;;;5074583;28;20466;-70
2021/03/02 00:56:08;;;;;;;32.78;21.80;;;11.80;65.80;;;;;;5074368;28;20028;-73
2021/03/02 00:58:33;;;;;;;31.77;21.25;;;11.80;65.10;;;;;;5074609;28;20029;-71
2021/03/02 01:00:59;;;;;;;32.60;20.85;;;11.90;64.70;;;;;;5074455;28;20397;-70
2021/03/02 01:03:25;;;;;;;32.40;21.33;;;11.80;64.70;;;;;;5074368;28;20028;-71
2021/03/02 01:05:50;;;;;;;30.27;19.65;;;11.80;64.30;;;;;;5073981;28;20028;-71
2021/03/02 01:08:16;;;;;;;32.58;20.95;;;11.70;63.70;;;;;;5074397;28;20028;-70
2021/03/02 01:10:42;;;;;;;33.30;20.27;;;11.70;63.90;;;;;;5074581;28;20028;-70
2021/03/02 01:13:09;;;;;;;32.22;20.67;;;11.80;63.50;;;;;;5073945;28;20119;-69
2021/03/02 01:15:34;;;;;;;28.60;20.23;;;11.90;63.00;;;;;;5074184;28;20021;-70
2021/03/02 01:18:00;;;;;;;29.15;18.67;;;11.90;62.50;;;;;;5074215;28;20086;-71
2021/03/02 01:20:26;;;;;;;30.40;18.65;;;12.00;62.10;;;;;;5072038;28;20472;-71
2021/03/02 01:22:52;;;;;;;38.20;20.25;;;12.00;61.50;;;;;;5073170;28;20035;-70
2021/03/02 01:25:17;;;;;;;25.85;17.52;;;12.00;61.30;;;;;;5073709;28;20012;-72
2021/03/02 01:27:43;;;;;;;26.02;19.25;;;11.90;60.80;;;;;;5073731;28;20035;-70
2021/03/02 01:30:11;;;;;;;30.63;20.30;;;11.90;60.10;;;;;;5073779;28;20013;-70
2021/03/02 01:32:37;;;;;;;26.70;18.90;;;11.80;60.20;;;;;;5073502;28;20032;-70
2021/03/02 01:35:08;;;;;;;31.55;18.70;;;11.70;60.00;;;;;;5073462;28;20411;-70
2021/03/02 01:37:34;;;;;;;27.33;18.52;;;11.60;60.00;;;;;;5072014;28;20091;-70
2021/03/02 01:40:02;;;;;;;30.98;18.38;;;11.60;59.80;;;;;;5073707;28;20101;-71
2021/03/02 01:42:28;;;;;;;25.80;18.35;;;11.60;59.30;;;;;;5073072;28;20027;-70
2021/03/02 01:44:54;;;;;;;30.05;18.75;;;11.50;58.90;;;;;;5073310;28;20028;-71
2021/03/02 01:47:20;;;;;;;26.98;19.33;;;11.40;59.10;;;;;;5073680;28;20470;-70
2021/03/02 01:49:45;;;;;;;25.42;17.33;;;11.40;58.90;;;;;;5072743;28;20024;-76
2021/03/02 01:52:11;;;;;;;27.30;18.50;;;11.30;58.90;;;;;;5073767;28;20462;-71
2021/03/02 01:54:37;;;;;;;28.88;17.75;;;11.30;58.90;;;;;;5073313;28;20036;-71
2021/03/02 01:57:03;;;;;;;24.35;16.85;;;11.30;58.80;;;;;;5073650;28;20063;-71
2021/03/02 01:59:29;;;;;;;31.35;17.90;;;11.20;58.40;;;;;;5073297;28;20024;-71
2021/03/02 02:01:59;;;;;;;24.58;17.40;;;11.10;58.20;;;;;;5073376;28;20454;-74
2021/03/02 02:04:28;;;;;;;24.70;17.38;;;11.10;58.30;;;;;;5071905;28;20043;-71
2021/03/02 02:06:56;;;;;;;28.42;18.17;;;11.10;58.10;;;;;;5073166;28;20029;-74
2021/03/02 02:09:27;;;;;;;28.38;17.08;;;11.20;58.10;;;;;;5073619;28;20158;-72
2021/03/02 02:11:53;;;;;;;23.85;16.80;;;11.20;57.80;;;;;;5072902;28;20059;-77
2021/03/02 02:14:40;;;;;;;27.95;17.33;;;11.20;57.70;;;;;;5073166;28;20068;-71
2021/03/02 02:17:11;;;;;;;22.23;17.20;;;11.20;57.40;;;;;;5072492;28;20474;-70
2021/03/02 02:19:40;;;;;;;26.48;16.42;;;11.10;56.90;;;;;;5072999;28;20063;-70
2021/03/02 02:22:30;;;;;;;22.17;16.45;;;11.00;57.30;;;;;;5073012;28;20124;-72
2021/03/02 02:25:37;;;;;;;22.38;16.00;;;10.90;57.60;;;;;;5073147;28;20025;-69
2021/03/02 02:28:03;;;;;;;24.27;16.30;;;11.00;57.70;;;;;;5039708;28;20447;-76
2021/03/02 02:30:30;;;;;;;24.73;17.58;;;11.00;57.30;;;;;;5071913;28;20042;-71
2021/03/02 02:32:57;;;;;;;21.55;16.48;;;11.00;57.30;;;;;;5072900;28;20055;-70
2021/03/02 02:35:25;;;;;;;27.00;17.00;;;11.10;57.60;;;;;;5072759;28;20074;-71
2021/03/02 02:37:53;;;;;;;29.45;17.52;;;11.20;57.40;;;;;;5072761;28;20104;-76
2021/03/02 02:40:21;;;;;;;24.25;18.02;;;11.20;57.60;;;;;;5072915;28;20025;-71
2021/03/02 02:42:50;;;;;;;25.15;17.02;;;11.30;57.40;;;;;;5073173;28;20017;-70
2021/03/02 02:45:17;;;;;;;24.65;17.85;;;11.20;57.50;;;;;;5072763;28;20012;-71
2021/03/02 02:47:48;;;;;;;23.27;17.20;;;11.10;57.60;;;;;;5072866;28;20354;-78
2021/03/02 02:50:14;;;;;;;25.75;17.52;;;11.00;57.70;;;;;;5069102;28;20020;-72
2021/03/02 02:52:41;;;;;;;24.33;16.90;;;11.10;58.10;;;;;;5073235;28;20379;-76
2021/03/02 02:55:08;;;;;;;21.92;16.73;;;11.10;58.00;;;;;;5072631;28;20029;-72
2021/03/02 02:57:39;;;;;;;24.05;16.70;;;11.10;58.00;;;;;;5071800;28;20029;-69
2021/03/02 03:00:05;;;;;;;27.70;16.83;;;11.00;57.70;;;;;;5072812;28;20048;-70
2021/03/02 03:02:34;;;;;;;25.75;15.60;;;11.00;57.80;;;;;;5073199;28;20065;-70
2021/03/02 03:05:21;;;;;;;21.58;15.48;;;10.90;57.40;;;;;;5072517;28;20377;-70
2021/03/02 03:08:12;;;;;;;24.67;16.02;;;10.90;57.10;;;;;;5073157;28;20124;-69
2021/03/02 03:10:38;;;;;;;25.35;14.65;;;10.80;57.30;;;;;;5072704;28;20028;-71
2021/03/02 03:13:06;;;;;;;22.95;15.25;;;10.70;57.10;;;;;;5072353;28;20045;-69
2021/03/02 03:15:34;;;;;;;22.23;14.63;;;10.70;56.80;;;;;;5072875;28;20044;-70
2021/03/02 03:18:06;;;;;;;20.13;13.98;;;10.70;56.30;;;;;;5072472;28;20082;-71
2021/03/02 03:20:32;;;;;;;21.92;14.85;;;10.60;56.30;;;;;;5072230;28;20029;-70
2021/03/02 03:22:59;;;;;;;21.15;13.88;;;10.60;56.30;;;;;;5072883;28;20103;-70
2021/03/02 03:25:25;;;;;;;22.10;13.18;;;10.60;56.00;;;;;;5072360;28;20012;-71
2021/03/02 03:27:58;;;;;;;19.63;13.60;;;10.60;55.70;;;;;;5073969;28;20028;-71
2021/03/02 03:30:25;;;;;;;25.85;13.93;;;10.60;55.50;;;;;;5076179;28;20020;-72
2021/03/02 03:32:56;;;;;;;18.13;13.15;;;10.60;55.50;;;;;;5075952;28;20032;-71
2021/03/02 03:35:24;;;;;;;20.00;12.48;;;10.70;55.40;;;;;;5075729;28;20029;-71
2021/03/02 03:37:49;;;;;;;19.58;12.63;;;10.70;55.00;;;;;;5076163;28;20035;-72
2021/03/02 03:40:15;;;;;;;21.30;11.80;;;10.70;54.80;;;;;;5075887;28;20463;-72
2021/03/02 03:42:41;;;;;;;20.08;13.18;;;10.60;54.70;;;;;;5076147;28;20028;-72
2021/03/02 03:45:07;;;;;;;21.23;13.60;;;10.60;54.50;;;;;;5075842;28;20078;-71
2021/03/02 03:47:35;;;;;;;21.60;13.13;;;10.60;54.40;;;;;;5076016;28;20112;-70
2021/03/02 03:50:02;;;;;;;17.60;11.98;;;10.40;53.90;;;;;;5075770;28;20096;-71
2021/03/02 03:52:28;;;;;;;24.38;13.48;;;10.30;54.30;;;;;;5075612;28;20028;-71
2021/03/02 03:54:55;;;;;;;23.15;12.55;;;10.20;54.60;;;;;;5075556;28;20036;-72
2021/03/02 03:57:23;;;;;;;18.85;13.80;;;10.30;54.60;;;;;;5075604;28;20036;-71
2021/03/02 03:59:51;;;;;;;18.40;12.30;;;10.20;54.50;;;;;;5075655;28;20385;-71
2021/03/02 04:02:17;;;;;;;20.23;11.95;;;10.20;54.50;;;;;;5075564;28;20020;-71
2021/03/02 04:04:43;;;;;;;18.30;12.13;;;10.20;54.30;;;;;;5075554;28;20033;-71
2021/03/02 04:07:10;;;;;;;18.40;10.65;;;10.10;53.90;;;;;;5075541;28;20040;-69
2021/03/02 04:09:37;;;;;;;16.67;10.85;;;10.10;53.50;;;;;;5075562;28;20097;-70
2021/03/02 04:12:03;;;;;;;15.98;10.73;;;10.00;53.30;;;;;;5075419;28;20574;-70
2021/03/02 04:14:32;;;;;;;18.25;11.05;;;10.00;53.00;;;;;;5075302;28;20033;-70
2021/03/02 04:16:58;;;;;;;17.67;10.40;;;10.10;53.10;;;;;;5075175;28;20021;-70
2021/03/02 04:19:24;;;;;;;16.00;10.75;;;10.00;52.60;;;;;;5073897;28;20032;-72
2021/03/02 04:21:49;;;;;;;15.23;10.13;;;9.90;53.60;;;;;;5075409;28;20016;-70
2021/03/02 04:24:15;;;;;;;20.70;10.50;;;9.90;53.30;;;;;;5075118;28;20100;-70
2021/03/02 04:26:41;;;;;;;15.82;10.13;;;10.00;52.60;;;;;;5074883;28;20024;-70
2021/03/02 04:29:07;;;;;;;16.48;9.27;;;10.20;52.20;;;;;;5075114;28;20021;-72
2021/03/02 04:31:32;;;;;;;17.77;9.57;;;10.30;51.50;;;;;;5074893;28;20032;-71
2021/03/02 04:33:58;;;;;;;14.48;8.95;;;10.40;51.30;;;;;;5075012;28;20040;-70
2021/03/02 04:36:24;;;;;;;15.82;9.05;;;10.30;50.60;;;;;;5074841;28;20100;-71
2021/03/02 04:38:50;;;;;;;16.98;9.38;;;10.20;50.30;;;;;;5074291;28;20477;-70
2021/03/02 04:41:15;;;;;;;18.85;10.20;;;10.20;50.60;;;;;;5074824;28;20025;-70
2021/03/02 04:43:41;;;;;;;15.80;9.45;;;10.30;50.60;;;;;;5074242;28;20371;-71
2021/03/02 04:46:07;;;;;;;15.52;9.55;;;10.40;50.40;;;;;;5074430;28;20039;-69
2021/03/02 04:48:32;;;;;;;15.02;9.18;;;10.40;49.80;;;;;;5074702;28;20017;-71
2021/03/02 04:50:58;;;;;;;15.30;9.05;;;10.40;49.60;;;;;;5074431;28;20389;-71
2021/03/02 04:53:24;;;;;;;18.73;8.85;;;10.40;49.40;;;;;;5074435;28;20437;-70
2021/03/02 04:55:50;;;;;;;13.88;8.98;;;10.40;49.30;;;;;;5074331;28;20116;-71
2021/03/02 04:58:15;;;;;;;14.38;9.07;;;10.30;49.60;;;;;;5074656;28;20028;-70
2021/03/02 05:00:41;;;;;;;16.45;9.00;;;10.20;49.40;;;;;;5074510;28;20020;-70
2021/03/02 05:03:07;;;;;;;15.57;8.40;;;10.30;50.00;;;;;;5074276;28;20021;-70
2021/03/02 05:05:33;;;;;;;15.35;9.15;;;10.20;49.30;;;;;;5074534;28;20028;-76
2021/03/02 05:07:59;;;;;;;16.90;9.02;;;9.90;50.20;;;;;;5074189;28;20112;-71
2021/03/02 05:10:24;;;;;;;18.02;9.57;;;9.90;50.60;;;;;;5074560;28;20020;-70
2021/03/02 05:12:50;;;;;;;13.88;9.13;;;10.00;49.80;;;;;;5074094;28;20051;-71
2021/03/02 05:15:16;;;;;;;13.38;8.75;;;10.10;49.80;;;;;;5073990;28;20422;-72
2021/03/02 05:17:42;;;;;;;13.90;9.13;;;10.10;49.80;;;;;;5074534;28;20021;-72
2021/03/02 05:20:08;;;;;;;13.85;9.00;;;10.20;49.50;;;;;;5074627;28;20390;-71
2021/03/02 05:22:34;;;;;;;14.93;9.23;;;10.20;49.40;;;;;;5074486;28;20078;-71
2021/03/02 05:25:00;;;;;;;14.85;9.10;;;10.30;49.20;;;;;;5074120;28;20036;-71
2021/03/02 05:27:25;;;;;;;14.48;8.80;;;10.30;49.20;;;;;;5073984;28;20496;-77
2021/03/02 05:29:51;;;;;;;13.65;9.07;;;10.20;48.90;;;;;;5072555;28;20108;-71
2021/03/02 05:32:17;;;;;;;15.60;9.18;;;10.10;49.20;;;;;;5073950;28;20100;-71
2021/03/02 05:34:42;;;;;;;13.07;8.73;;;9.90;49.90;;;;;;5073459;28;20097;-71
2021/03/02 05:37:08;;;;;;;15.27;9.55;;;9.80;50.50;;;;;;5072749;28;20051;-71
2021/03/02 05:39:34;;;;;;;16.85;9.80;;;9.90;51.00;;;;;;5073863;28;20406;-70
2021/03/02 05:42:01;;;;;;;15.23;9.20;;;10.00;49.70;;;;;;5073952;28;20070;-78
2021/03/02 05:44:27;;;;;;;14.50;9.48;;;9.90;50.30;;;;;;5073662;28;20035;-70
2021/03/02 05:46:53;;;;;;;13.52;9.52;;;9.80;50.40;;;;;;5073845;28;20021;-71
2021/03/02 05:49:19;;;;;;;15.40;9.15;;;9.70;50.40;;;;;;5073539;28;20073;-72
2021/03/02 05:51:45;;;;;;;16.48;9.05;;;9.70;50.50;;;;;;5072948;28;20028;-71
2021/03/02 05:54:12;;;;;;;17.65;9.52;;;9.80;50.80;;;;;;5073530;28;20032;-70
2021/03/02 05:56:39;;;;;;;14.38;9.20;;;9.90;50.40;;;;;;5072459;28;20024;-70
2021/03/02 05:59:05;;;;;;;17.13;9.25;;;9.90;50.20;;;;;;5073470;28;20027;-71
2021/03/02 06:01:31;;;;;;;13.63;8.93;;;9.80;50.00;;;;;;5073620;28;20070;-71
2021/03/02 06:03:56;;;;;;;14.15;8.88;;;9.70;50.10;;;;;;5073624;28;20451;-71
2021/03/02 06:06:22;;;;;;;14.70;9.40;;;9.70;50.50;;;;;;5073449;28;20123;-70
2021/03/02 06:08:48;;;;;;;14.82;8.57;;;9.60;49.70;;;;;;5073354;28;20500;-70
2021/03/02 06:11:23;;;;;;;12.75;8.90;;;9.70;50.40;;;;;;5073306;28;20035;-71
2021/03/02 06:13:50;;;;;;;15.68;8.63;;;9.80;50.40;;;;;;5073618;28;20486;-72
2021/03/02 06:16:15;;;;;;;16.48;9.05;;;9.90;49.90;;;;;;5073032;28;20025;-70
2021/03/02 06:19:07;;;;;;;16.60;8.85;;;9.90;49.60;;;;;;5073328;28;20021;-71
2021/03/02 06:21:35;;;;;;;16.17;8.55;;;9.90;48.30;;;;;;5071082;28;20044;-71
2021/03/02 06:24:01;;;;;;;14.27;8.85;;;9.90;49.20;;;;;;5072878;28;20371;-70
2021/03/02 06:26:27;;;;;;;17.30;9.18;;;10.00;47.70;;;;;;5072729;28;20024;-73
2021/03/02 06:29:01;;;;;;;13.70;8.52;;;9.90;48.10;;;;;;5073016;28;20020;-70
2021/03/02 06:31:33;;;;;;;15.18;8.50;;;10.00;47.20;;;;;;5073167;28;20017;-70
2021/03/02 06:34:15;;;;;;;15.07;8.35;;;10.00;46.90;;;;;;5072847;28;20043;-72
2021/03/02 06:37:00;;;;;;;17.73;9.48;;;10.00;47.30;;;;;;5072763;28;20016;-73
2021/03/02 06:39:42;;;;;;;15.10;9.05;;;9.90;48.00;;;;;;5072911;28;20063;-70
2021/03/02 06:42:23;;;;;;;20.13;9.75;;;10.10;47.20;;;;;;5073251;28;20038;-70
2021/03/02 06:44:54;;;;;;;19.85;9.15;;;10.20;47.10;;;;;;5071415;28;20035;-72
2021/03/02 06:47:39;;;;;;;16.67;9.52;;;10.20;46.20;;;;;;5072780;28;20350;-71
2021/03/02 06:50:11;;;;;;;14.65;8.95;;;10.30;45.50;;;;;;5072899;28;20391;-71
2021/03/02 06:52:44;;;;;;;13.38;9.45;;;10.20;46.20;;;;;;5072947;28;20032;-70
2021/03/02 06:55:16;;;;;;;17.13;9.10;;;10.10;45.70;;;;;;5072745;28;20036;-71
2021/03/02 06:57:43;;;;;;;14.57;8.68;;;10.20;45.70;;;;;;5073368;28;20099;-71
2021/03/02 07:00:09;;;;;;;13.77;9.50;;;10.40;45.50;;;;;;5072867;28;20056;-73
2021/03/02 07:02:40;;;;;;;17.25;9.57;;;10.50;45.80;;;;;;5074094;28;20438;-71
2021/03/02 07:05:09;;;;;;;16.67;9.77;;;10.60;45.20;;;;;;5076597;28;20025;-70
2021/03/02 07:07:36;;;;;;;16.85;9.77;;;10.80;46.40;;;;;;5076518;28;20488;-72
2021/03/02 07:10:04;;;;;;;18.80;9.23;;;10.80;45.10;;;;;;5076454;28;20025;-72
2021/03/02 07:12:38;;;;;;;14.98;9.43;;;10.80;45.10;;;;;;5076348;28;20485;-72
2021/03/02 07:15:06;;;;;;;15.07;8.85;;;10.90;44.70;;;;;;5074906;28;20056;-70
2021/03/02 07:17:36;;;;;;;19.95;9.15;;;11.00;45.00;;;;;;5076277;28;20031;-71
2021/03/02 07:20:04;;;;;;;14.02;8.95;;;11.10;44.80;;;;;;5076195;28;20440;-72
2021/03/02 07:22:31;;;;;;;19.33;9.15;;;11.10;44.70;;;;;;5075862;28;20041;-71
2021/03/02 07:25:01;;;;;;;16.15;9.82;;;11.20;44.80;;;;;;5076243;28;20111;-72
2021/03/02 07:27:30;;;;;;;16.23;9.27;;;11.40;44.50;;;;;;5075782;28;20047;-71
2021/03/02 07:30:04;;;;;;;15.70;8.93;;;11.50;44.30;;;;;;5075904;28;20031;-71
2021/03/02 07:32:30;;;;;;;;;;;11.60;44.60;;;;;;5076153;28;20465;-72
2021/03/02 07:34:57;;;;;;;18.80;9.85;;;11.80;44.50;;;;;;5075492;28;19916;-72
2021/03/02 07:37:23;;;;;;;27.45;10.82;;;11.80;45.00;;;;;;5075915;28;20024;-72
2021/03/02 07:40:06;;;;;;;21.98;11.25;;;12.00;45.10;;;;;;5075808;28;20137;-73
2021/03/02 07:42:32;;;;;;;16.48;9.60;;;12.10;45.30;;;;;;5075725;28;20558;-74
2021/03/02 07:45:13;;;;;;;21.63;9.82;;;12.20;44.50;;;;;;5075861;28;20086;-72
2021/03/02 07:47:46;;;;;;;21.10;10.55;;;12.30;44.80;;;;;;5075511;28;20035;-73
2021/03/02 07:50:19;;;;;;;17.75;9.63;;;12.40;45.30;;;;;;5075208;28;20028;-71
2021/03/02 07:52:46;;;;;;;18.02;9.48;;;12.50;44.50;;;;;;5075294;28;20031;-73
2021/03/02 07:55:25;;;;;;;13.32;8.38;;;12.50;44.10;;;;;;5075343;28;20126;-72
2021/03/02 07:58:13;;;;;;;14.48;8.68;;;12.40;43.50;;;;;;5075475;28;20028;-71
2021/03/02 08:00:39;;;;;;;12.48;7.90;;;12.30;43.40;;;;;;5075311;28;20025;-72
2021/03/02 08:03:21;;;;;;;14.30;8.60;;;12.40;43.30;;;;;;5075562;28;20017;-72
2021/03/02 08:05:48;;;;;;;13.23;7.90;;;12.40;42.70;;;;;;5075060;28;20036;-74
2021/03/02 08:08:23;;;;;;;14.38;8.98;;;12.50;43.00;;;;;;5075249;28;20048;-73
2021/03/02 08:11:01;;;;;;;13.82;9.68;;;12.40;42.70;;;;;;5075221;28;20032;-73
2021/03/02 08:13:31;;;;;;;16.35;9.88;;;12.30;42.90;;;;;;5074997;28;20046;-72
2021/03/02 08:15:56;;;;;;;17.02;9.63;;;12.30;42.90;;;;;;5074775;28;20067;-74
2021/03/02 08:18:30;;;;;;;15.43;8.82;;;12.40;43.10;;;;;;5075712;28;20060;-72
2021/03/02 08:21:19;;;;;;;16.13;9.13;;;12.30;42.70;;;;;;5075194;28;20473;-71
2021/03/02 08:23:57;;;;;;;13.68;8.43;;;12.40;43.00;;;;;;5075103;28;20024;-70
2021/03/02 08:26:35;;;;;;;18.00;7.85;;;12.30;43.30;;;;;;5074970;28;20171;-73
2021/03/02 08:29:18;;;;;;;14.48;8.02;;;12.30;43.00;;;;;;5073785;28;20068;-74
2021/03/02 08:31:50;;;;;;;14.23;7.75;;;12.40;43.00;;;;;;5075051;28;20020;-73
2021/03/02 08:34:20;;;;;;;15.43;8.05;;;12.50;43.10;;;;;;5075041;28;20029;-72
2021/03/02 08:36:50;;;;;;;13.75;8.02;;;12.50;43.20;;;;;;5074681;28;20033;-73
2021/03/02 08:39:18;;;;;;;15.07;7.75;;;12.50;42.70;;;;;;5074565;28;20021;-71
2021/03/02 08:41:47;;;;;;;16.52;8.77;;;12.60;42.70;;;;;;5074501;28;20039;-71
2021/03/02 08:44:20;;;;;;;19.83;9.55;;;12.60;43.00;;;;;;5074650;28;20035;-72
2021/03/02 08:46:51;;;;;;;15.02;8.15;;;12.70;43.00;;;;;;5074363;28;20477;-73
2021/03/02 08:49:17;;;;;;;16.55;7.75;;;12.70;43.00;;;;;;5074649;28;20529;-72
2021/03/02 08:51:43;;;;;;;12.70;7.78;;;12.70;42.50;;;;;;5074842;28;20378;-72
2021/03/02 08:54:09;;;;;;;14.85;7.22;;;12.70;42.30;;;;;;5074247;28;20043;-73
2021/03/02 08:56:34;;;;;;;15.02;8.10;;;12.80;42.70;;;;;;5074392;28;20051;-74
2021/03/02 08:59:06;;;;;;;17.52;8.45;;;12.80;42.80;;;;;;5074328;28;20024;-75
2021/03/02 09:01:34;;;;;;;13.30;8.18;;;12.80;43.00;;;;;;5074374;28;20040;-78
2021/03/02 09:04:14;;;;;;;13.20;8.35;;;12.80;43.20;;;;;;5074416;28;20060;-71
2021/03/02 09:06:44;;;;;;;13.60;7.88;;;12.90;43.70;;;;;;5072674;28;20085;-71
2021/03/02 09:09:20;;;;;;;18.80;8.73;;;13.00;43.70;;;;;;5074144;28;20035;-76
2021/03/02 09:11:58;;;;;;;14.75;8.52;;;13.10;44.10;;;;;;5074158;28;20462;-73
2021/03/02 09:14:26;;;;;;;15.52;8.48;;;13.10;44.20;;;;;;5074074;28;20033;-73
2021/03/02 09:16:56;;;;;;;19.63;9.70;;;13.10;44.00;;;;;;5073879;28;20028;-71
2021/03/02 09:19:39;;;;;;;16.42;9.00;;;13.20;43.90;;;;;;5073926;28;20032;-74
2021/03/02 09:22:13;;;;;;;16.83;9.50;;;13.30;44.50;;;;;;5073496;28;20021;-71
2021/03/02 09:24:56;;;;;;;15.13;9.73;;;13.40;44.50;;;;;;5073450;28;20016;-72
2021/03/02 09:27:29;;;;;;;23.15;9.38;;;13.50;44.60;;;;;;5072179;28;20028;-73
2021/03/02 09:29:55;;;;;;;13.70;9.57;;;13.50;44.60;;;;;;5073283;28;20017;-76
2021/03/02 09:32:27;;;;;;;20.08;8.82;;;13.60;44.80;;;;;;5073809;28;20028;-71
2021/03/02 09:34:58;;;;;;;21.98;9.98;;;13.60;44.80;;;;;;5073381;28;20040;-73
2021/03/02 09:37:24;;;;;;;18.50;10.50;;;13.80;45.30;;;;;;5073532;28;20032;-71
2021/03/02 09:40:07;;;;;;;17.10;10.48;;;13.80;45.20;;;;;;5073720;28;20029;-74
2021/03/02 09:42:36;;;;;;;16.27;10.63;;;13.90;45.80;;;;;;5073550;28;20025;-71
2021/03/02 09:45:09;;;;;;;21.83;10.27;;;13.90;45.50;;;;;;5073444;28;20266;-71
2021/03/02 09:47:36;;;;;;;24.30;10.00;;;14.00;45.90;;;;;;5073375;28;20013;-73
2021/03/02 09:50:10;;;;;;;16.83;10.48;;;14.10;45.90;;;;;;5073498;28;20113;-74
2021/03/02 09:52:42;;;;;;;20.52;11.23;;;14.20;45.90;;;;;;5073438;28;20378;-73
2021/03/02 09:55:16;;;;;;;17.02;10.77;;;14.30;46.40;;;;;;5071524;28;20501;-72
2021/03/02 09:57:48;;;;;;;15.43;10.52;;;14.30;46.10;;;;;;5073042;28;20028;-71
2021/03/02 10:00:15;;;;;;;15.77;7.97;;;14.40;45.90;;;;;;5072970;28;20032;-71
2021/03/02 10:02:54;;;;;;;20.52;12.02;;;14.50;45.90;;;;;;5073010;28;20346;-71
2021/03/02 10:05:39;;;;;;;21.33;10.38;;;14.60;46.00;;;;;;5072827;28;20028;-73
2021/03/02 10:08:20;;;;;;;21.23;11.43;;;14.70;46.20;;;;;;5071796;28;20020;-74
2021/03/02 10:10:46;;;;;;;19.17;11.23;;;14.80;46.50;;;;;;5073076;28;20033;-73
2021/03/02 10:13:20;;;;;;;19.88;11.10;;;14.80;46.50;;;;;;5072689;28;20561;-74
2021/03/02 10:15:46;;;;;;;20.17;11.23;;;14.80;46.00;;;;;;5072799;28;20039;-72
2021/03/02 10:18:25;;;;;;;19.60;11.00;;;14.90;46.40;;;;;;5073620;28;20370;-72
2021/03/02 10:21:08;;;;;;;16.50;10.48;;;15.00;46.30;;;;;;5072946;28;20070;-76
2021/03/02 10:23:42;;;;;;;16.95;10.65;;;15.10;46.20;;;;;;5054939;28;20460;-72
2021/03/02 10:26:08;;;;;;;18.80;10.13;;;15.10;46.00;;;;;;5072850;28;20434;-73
2021/03/02 10:28:35;;;;;;;23.63;9.95;;;15.20;46.00;;;;;;5072866;28;20025;-73
2021/03/02 10:31:01;;;;;;;18.98;10.18;;;15.30;45.70;;;;;;5072889;28;20017;-74
2021/03/02 10:33:27;;;;;;;15.38;9.48;;;15.30;45.50;;;;;;5072623;28;20043;-72
2021/03/02 10:35:54;;;;;;;15.32;10.00;;;15.40;45.30;;;;;;5072532;28;20497;-72
2021/03/02 10:38:20;;;;;;;16.13;9.82;;;15.50;45.20;;;;;;5071853;28;20079;-75
2021/03/02 10:40:45;;;;;;;14.60;9.10;;;15.60;44.70;;;;;;5073138;28;20021;-74
2021/03/02 10:43:11;;;;;;;17.08;10.48;;;15.60;44.90;;;;;;5072914;28;20056;-75
2021/03/02 10:45:37;;;;;;;16.70;10.38;;;15.80;44.80;;;;;;5072408;28;20086;-75
2021/03/02 10:48:03;;;;;;;23.77;10.18;;;15.80;44.70;;;;;;5072705;28;20032;-72
2021/03/02 10:50:29;;;;;;;18.20;10.88;;;16.00;44.70;;;;;;5072733;28;20028;-74
2021/03/02 10:52:56;;;;;;;23.65;10.10;;;16.10;44.70;;;;;;5072676;28;20028;-73
2021/03/02 10:55:22;;;;;;;18.52;10.55;;;16.20;44.60;;;;;;5072795;28;20032;-72
2021/03/02 10:57:48;;;;;;;19.38;10.15;;;16.20;44.30;;;;;;5072445;28;20048;-75
2021/03/02 11:00:15;;;;;;;18.73;10.88;;;16.30;44.20;;;;;;5072559;28;20449;-73
2021/03/02 11:02:41;;;;;;;20.20;10.45;;;16.40;44.40;;;;;;5071485;28;20021;-72
2021/03/02 11:05:07;;;;;;;19.40;10.70;;;16.50;44.30;;;;;;5072335;28;20499;-74
2021/03/02 11:07:33;;;;;;;22.67;10.55;;;16.60;44.30;;;;;;5072417;28;20024;-72
2021/03/02 11:09:59;;;;;;;20.85;9.57;;;16.70;44.30;;;;;;5071220;28;20044;-72
2021/03/02 11:12:24;;;;;;;18.83;10.60;;;16.80;44.50;;;;;;5072261;28;20044;-74
2021/03/02 11:14:50;;;;;;;21.77;10.80;;;16.80;44.40;;;;;;5072037;28;20035;-70
2021/03/02 11:17:16;;;;;;;20.27;9.95;;;16.90;44.50;;;;;;5070982;28;20027;-75
2021/03/02 11:19:41;;;;;;;16.88;9.57;;;17.00;44.70;;;;;;5072352;28;20464;-73
2021/03/02 11:22:07;;;;;;;18.27;10.35;;;17.10;44.70;;;;;;5072063;28;20027;-71
2021/03/02 11:24:33;;;;;;;24.27;11.02;;;17.10;44.70;;;;;;5071837;28;20056;-73
2021/03/02 11:26:58;;;;;;;17.48;10.32;;;17.20;44.80;;;;;;5072200;28;20393;-74
2021/03/02 11:29:24;;;;;;;17.75;10.90;;;17.30;45.00;;;;;;5071865;28;20028;-74
2021/03/02 11:31:50;;;;;;;17.17;9.57;;;17.40;44.60;;;;;;5072047;28;20043;-75
2021/03/02 11:34:15;;;;;;;17.77;9.95;;;17.40;44.40;;;;;;5070733;28;20090;-71
2021/03/02 11:36:41;;;;;;;24.08;10.70;;;17.40;44.60;;;;;;5071813;28;20071;-71
2021/03/02 11:39:07;;;;;;;19.95;10.68;;;17.50;44.70;;;;;;5071940;28;20009;-74
2021/03/02 11:41:32;;;;;;;22.13;10.75;;;17.60;44.60;;;;;;5072337;28;20071;-72
2021/03/02 11:43:58;;;;;;;21.33;12.05;;;17.70;44.40;;;;;;5072186;28;20046;-73
2021/03/02 11:46:24;;;;;;;20.90;10.30;;;17.70;44.20;;;;;;5070647;28;20025;-73
2021/03/02 11:48:49;;;;;;;15.75;10.50;;;17.80;44.40;;;;;;5071848;28;20033;-73
2021/03/02 11:51:15;;;;;;;17.50;10.75;;;17.90;43.80;;;;;;5075270;28;20466;-72
2021/03/02 11:53:41;;;;;;;17.77;10.85;;;17.90;44.20;;;;;;5075165;28;20028;-75
2021/03/02 11:56:07;;;;;;;22.08;11.73;;;18.00;44.00;;;;;;5075682;28;20032;-78
2021/03/02 11:58:32;;;;;;;21.25;12.07;;;18.00;43.70;;;;;;5075813;28;20520;-75
2021/03/02 12:01:14;;;;;;;21.98;11.38;;;18.10;43.60;;;;;;5075577;28;20025;-78
2021/03/02 12:03:40;;;;;;;24.45;11.80;;;18.10;42.60;;;;;;5074083;28;20055;-75
2021/03/02 12:06:05;;;;;;;20.83;10.48;;;18.20;43.50;;;;;;5075067;28;20100;-74
2021/03/02 12:08:31;;;;;;;21.15;11.07;;;18.20;43.40;;;;;;5075267;28;20443;-79
2021/03/02 12:10:57;;;;;;;20.35;10.30;;;18.30;43.70;;;;;;5075153;28;20103;-73
2021/03/02 12:13:22;;;;;;;23.42;11.07;;;18.40;43.50;;;;;;5073740;28;20126;-77
2021/03/02 12:15:49;;;;;;;16.77;11.80;;;18.40;43.10;;;;;;5075236;28;20033;-74
2021/03/02 12:18:14;;;;;;;22.98;12.32;;;18.40;43.00;;;;;;5075073;28;20017;-74
2021/03/02 12:20:40;;;;;;;25.67;12.68;;;18.50;43.10;;;;;;5075183;28;20021;-74
2021/03/02 12:23:06;;;;;;;23.13;13.20;;;18.60;43.00;;;;;;5075402;28;20029;-75
2021/03/02 12:25:32;;;;;;;22.58;12.43;;;18.60;43.00;;;;;;5075417;28;20028;-78
2021/03/02 12:27:57;;;;;;;18.45;11.20;;;18.60;42.90;;;;;;5075584;28;20060;-75
2021/03/02 12:30:24;;;;;;;24.73;11.60;;;18.70;42.90;;;;;;5073982;28;20081;-78
2021/03/02 12:32:50;;;;;;;20.92;12.25;;;18.80;42.80;;;;;;5073767;28;20086;-74
2021/03/02 12:35:16;;;;;;;20.60;11.88;;;18.80;43.30;;;;;;5074919;28;20436;-78
2021/03/02 12:37:42;;;;;;;19.63;11.27;;;18.80;42.60;;;;;;5075157;28;20382;-77
2021/03/02 12:40:09;;;;;;;17.88;10.40;;;18.80;42.20;;;;;;5075375;28;20481;-78
2021/03/02 12:42:34;;;;;;;23.42;11.52;;;18.80;42.10;;;;;;5074883;28;20052;-74